Latest Coastal Weather Observations for Middle Percy Island

IDQ60701

Issued at 12:01 pm EST Tuesday 28 April 2015 (issued every 10 minutes, with the page automatically refreshed every 10 minutes)

About coastal observations | Map of coastal stations | Coastal observations for QLD | Marine services | Other Formats
Station Details ID: 200001 Name: MIDDLE PERCY ISLAND Lat: -21.66 Lon: 150.27 Height: 208.7 m
Data from the previous 72 hours. | See also: Recent months at Middle Percy Island
Date/Time
EST
Temp

°C
Wind Pressure Rain
since 9am
mm
Weather Cloud Vis
km
Sea
Height
m
Swell
Dir
 
Speed
knots
Gust
knots
hPa Trend Height
m
Period
s
Dir
28/12:00pm 23.5 ENE 13 18 1018.6 - 0.0 - - - - - - -
28/11:30am 22.9 E 15 20 1019.1 - 0.0 - - - - - - -
28/11:00am 23.6 E 14 18 1019.5 - 0.0 - - - - - - -
28/10:30am 23.2 E 14 19 1019.6 - 0.0 - - - - - - -
28/10:00am 22.7 E 14 19 1019.6 - 0.0 - - - - - - -
28/09:30am 22.7 E 16 20 1019.6 - 0.0 - - - - - - -
28/09:00am 22.3 E 16 21 1019.4 - 0.0 - - - - - - -
28/08:30am 22.0 E 15 19 1019.1 - 0.0 - - - - - - -
28/08:00am 21.4 E 14 18 1019.1 - 0.0 - - - - - - -
28/07:30am 21.2 E 12 16 1018.7 - 0.0 - - - - - - -
28/07:00am 21.0 ENE 11 15 1018.4 - 0.0 - - - - - - -
28/06:30am 21.0 ENE 12 17 1018.2 - 0.0 - - - - - - -
28/06:00am 20.4 ENE 9 14 1017.8 - 0.0 - - - - - - -
28/05:30am 20.7 ENE 9 13 1017.5 - 0.0 - - - - - - -
28/05:00am 20.4 ENE 9 12 1017.3 - 0.0 - - - - - - -
28/04:00am 19.9 E 9 12 1017.1 - 0.0 - - - - - - -
28/03:30am 19.6 E 8 11 1017.2 - 0.0 - - - - - - -
28/03:00am 19.7 E 7 9 1017.4 - 0.0 - - - - - - -
28/02:30am 19.7 E 6 8 1017.5 - 0.0 - - - - - - -
28/02:00am 19.8 E 6 7 1017.9 - 0.0 - - - - - - -
28/01:30am 19.5 E 4 6 1018.1 - 0.0 - - - - - - -
28/01:00am 19.6 E 5 7 1018.2 - 0.0 - - - - - - -
28/12:30am 19.5 E 5 8 1018.4 - 0.0 - - - - - - -
28/12:00am 20.0 E 7 10 1018.5 - 0.0 - - - - - - -
 
Date/Time
EST
Temp

°C
Wind Pressure Rain
since 9am
mm
Weather Cloud Vis
km
Sea
Height
m
Swell
Dir
 
Speed
knots
Gust
knots
hPa Trend Height
m
Period
s
Dir
27/11:30pm 19.6 ENE 6 8 1018.4 - 0.0 - - - - - - -
27/11:00pm 19.7 ENE 7 9 1018.5 - 0.0 - - - - - - -
27/10:30pm 19.9 ENE 7 9 1018.5 - 0.0 - - - - - - -
27/10:00pm 19.8 NE 8 11 1018.6 - 0.0 - - - - - - -
27/09:30pm 19.1 NE 6 9 1018.5 - 0.0 - - - - - - -
27/09:00pm 19.4 NE 7 11 1018.5 - 0.0 - - - - - - -
27/08:30pm 19.4 ENE 7 10 1018.2 - 0.0 - - - - - - -
27/08:00pm 19.3 NE 7 9 1018.0 - 0.0 - - - - - - -
27/07:30pm 19.0 ENE 6 8 1017.7 - 0.0 - - - - - - -
27/07:00pm 18.9 NE 5 7 1017.3 - 0.0 - - - - - - -
27/06:30pm 19.1 NE 4 6 1017.0 - 0.0 - - - - - - -
27/06:00pm 19.3 ENE 3 4 1016.8 - 0.0 - - - - - - -
27/05:30pm 19.8 NE 3 3 1016.6 - 0.0 - - - - - - -
27/05:00pm 20.6 NE 3 4 1016.5 - 0.0 - - - - - - -
27/04:30pm 21.4 E 3 5 1016.2 - 0.0 - - - - - - -
27/04:00pm 21.9 E 6 9 1016.0 - 0.0 - - - - - - -
27/03:30pm 21.9 E 6 9 1015.8 - 0.0 - - - - - - -
27/03:00pm 22.0 E 8 11 1015.7 - 0.0 - - - - - - -
27/02:30pm 22.2 ESE 9 12 1015.6 - 0.0 - - - - - - -
27/02:00pm 22.5 E 9 13 1015.8 - 0.0 - - - - - - -
27/01:30pm 21.9 E 10 16 1016.0 - 0.0 - - - - - - -
27/01:00pm 22.4 E 9 13 1016.4 - 0.0 - - - - - - -
27/12:30pm 21.9 E 11 15 1016.6 - 0.0 - - - - - - -
27/12:00pm 22.0 E 11 15 1017.0 - 0.0 - - - - - - -
27/11:30am 21.8 E 11 16 1017.5 - 0.0 - - - - - - -
27/11:00am 21.4 E 12 18 1018.0 - 0.0 - - - - - - -
27/10:30am 21.2 E 11 14 1018.4 - 0.0 - - - - - - -
27/10:00am 20.8 E 12 15 1018.7 - 0.0 - - - - - - -
27/09:30am 20.4 E 13 17 1018.5 - 0.0 - - - - - - -
27/09:00am 19.9 E 13 17 1018.5 - 0.0 - - - - - - -
27/08:30am 19.8 E 12 17 1018.2 - 0.0 - - - - - - -
27/08:00am 19.3 E 12 15 1017.9 - 0.0 - - - - - - -
27/07:30am 18.7 E 14 18 1017.6 - 0.0 - - - - - - -
27/07:00am 18.2 E 13 18 1017.3 - 0.0 - - - - - - -
27/06:30am 18.1 E 15 20 1017.1 - 0.0 - - - - - - -
27/06:00am 18.3 E 16 23 1016.6 - 0.0 - - - - - - -
27/05:30am 18.4 E 18 23 1016.0 - 0.0 - - - - - - -
27/05:00am 18.8 E 20 25 1015.8 - 0.0 - - - - - - -
27/04:30am 19.0 E 20 26 1015.5 - 0.0 - - - - - - -
27/04:00am 19.2 E 21 28 1015.2 - 0.0 - - - - - - -
27/03:30am 19.5 E 24 31 1015.0 - 0.0 - - - - - - -
27/03:00am 19.7 E 24 31 1014.9 - 0.0 - - - - - - -
27/02:30am 20.1 E 24 31 1014.7 - 0.0 - - - - - - -
27/02:03am 20.5 E 21 31 1014.8 - 0.0 - - - - - - -
27/02:00am 20.6 E 21 28 1014.9 - 0.0 - - - - - - -
27/01:30am 20.9 E 20 25 1015.2 - 0.0 - - - - - - -
27/01:00am 21.4 E 18 23 1015.5 - 0.0 - - - - - - -
27/12:30am 21.1 E 13 18 1015.9 - 0.0 - - - - - - -
27/12:00am 21.6 E 14 19 1016.3 - 0.0 - - - - - - -
 
Date/Time
EST
Temp

°C
Wind Pressure Rain
since 9am
mm
Weather Cloud Vis
km
Sea
Height
m
Swell
Dir
 
Speed
knots
Gust
knots
hPa Trend Height
m
Period
s
Dir
26/11:30pm 21.6 E 13 19 1016.3 - 0.0 - - - - - - -
26/11:00pm 21.9 E 14 19 1016.4 - 0.0 - - - - - - -
26/10:30pm 22.1 E 14 19 1016.3 - 0.0 - - - - - - -
26/10:00pm 21.3 E 6 7 1016.5 - 0.0 - - - - - - -
26/09:30pm 21.1 E 6 8 1016.5 - 0.0 - - - - - - -
26/09:00pm 21.3 E 7 9 1016.3 - 0.0 - - - - - - -
26/08:30pm 21.5 E 7 10 1015.9 - 0.0 - - - - - - -
26/08:00pm 21.3 E 7 8 1015.6 - 0.0 - - - - - - -
26/07:30pm 21.1 E 7 8 1015.1 - 0.0 - - - - - - -
26/07:00pm 21.1 E 6 7 1014.6 - 0.0 - - - - - - -
26/06:30pm 21.2 E 6 7 1014.2 - 0.0 - - - - - - -
26/06:00pm 21.2 ENE 5 6 1014.0 - 0.0 - - - - - - -
26/05:30pm 21.4 NE 4 5 1013.6 - 0.0 - - - - - - -
26/05:00pm 22.4 N 3 4 1013.5 - 0.0 - - - - - - -
26/04:30pm 23.8 SSE 1 2 1013.4 - 0.0 - - - - - - -
26/04:00pm 23.7 SE 3 5 1013.2 - 0.0 - - - - - - -
26/03:30pm 23.8 SE 5 8 1013.2 - 0.0 - - - - - - -
26/03:00pm 23.7 ESE 6 8 1013.1 - 0.0 - - - - - - -
26/02:30pm 23.9 ESE 7 10 1013.2 - 0.0 - - - - - - -
26/02:00pm 23.7 SE 8 12 1013.3 - 0.0 - - - - - - -
26/01:30pm 23.6 ESE 10 13 1013.4 - 0.0 - - - - - - -
26/01:00pm 23.4 ESE 11 17 1013.4 - 0.0 - - - - - - -
26/12:30pm 23.3 ESE 12 15 1013.7 - 0.0 - - - - - - -
26/12:00pm 22.8 ESE 14 18 1013.7 - 0.0 - - - - - - -
26/11:30am 22.7 ESE 16 20 1013.9 - 0.0 - - - - - - -
26/11:00am 22.7 ESE 19 24 1014.2 - 0.0 - - - - - - -
26/10:30am 22.7 ESE 18 23 1014.3 - 0.0 - - - - - - -
26/10:00am 22.6 ESE 18 24 1014.5 - 0.0 - - - - - - -
26/09:30am 22.2 ESE 20 26 1014.5 - 0.0 - - - - - - -
26/09:00am 22.0 ESE 22 29 1014.2 - 0.0 - - - - - - -
26/08:30am 22.0 ESE 22 29 1014.0 - 0.0 - - - - - - -
26/08:03am 22.0 ESE 20 30 1013.8 - 0.0 - - - - - - -
26/08:00am 22.0 ESE 20 28 1013.9 - 0.0 - - - - - - -
26/07:30am 22.1 ESE 21 30 1013.3 - 0.0 - - - - - - -
26/07:26am 22.1 ESE 19 30 1013.4 - 0.0 - - - - - - -
26/07:00am 22.2 ESE 19 28 1013.0 - 0.0 - - - - - - -
26/06:30am 22.3 ESE 18 23 1012.9 - 0.0 - - - - - - -
26/06:00am 22.7 ESE 20 29 1012.3 - 0.0 - - - - - - -
26/05:30am 22.9 ESE 17 25 1012.0 - 0.0 - - - - - - -
26/05:00am 23.1 SE 18 26 1011.4 - 0.0 - - - - - - -
26/04:41am 23.3 SE 19 29 1011.4 - 0.0 - - - - - - -
26/04:30am 23.4 SE 21 27 1011.2 - 0.0 - - - - - - -
26/04:00am 23.4 SE 17 23 1011.3 - 0.0 - - - - - - -
26/03:30am 23.1 SSE 11 22 1011.4 - 0.0 - - - - - - -
26/03:00am 22.7 SSW 7 11 1011.6 - 0.0 - - - - - - -
26/02:30am 22.8 SW 8 11 1011.5 - 0.0 - - - - - - -
26/02:00am 22.9 WSW 9 11 1011.5 - 0.0 - - - - - - -
26/01:30am 23.0 WSW 9 11 1011.4 - 0.0 - - - - - - -
26/01:00am 22.9 WSW 8 11 1011.7 - 0.0 - - - - - - -
26/12:30am 22.9 WSW 8 13 1012.0 - 0.0 - - - - - - -
26/12:00am 22.9 WSW 8 12 1012.2 - 0.0 - - - - - - -
 
Date/Time
EST
Temp

°C
Wind Pressure Rain
since 9am
mm
Weather Cloud Vis
km
Sea
Height
m
Swell
Dir
 
Speed
knots
Gust
knots
hPa Trend Height
m
Period
s
Dir
25/11:30pm 22.6 W 7 11 1012.3 - 0.0 - - - - - - -
25/11:00pm 22.6 W 8 10 1012.3 - 0.0 - - - - - - -
25/10:30pm 22.6 W 10 13 1012.4 - 0.0 - - - - - - -
25/10:00pm 22.7 W 9 11 1012.5 - 0.0 - - - - - - -
25/09:30pm 22.8 W 10 11 1012.4 - 0.0 - - - - - - -
25/09:00pm 22.9 W 9 11 1012.2 - 0.0 - - - - - - -
25/08:30pm 22.8 W 8 10 1012.2 - 0.0 - - - - - - -
25/08:00pm 22.8 WNW 7 9 1012.1 - 0.0 - - - - - - -
25/07:30pm 22.7 WNW 7 8 1011.7 - 0.0 - - - - - - -
25/07:00pm 22.6 WNW 7 9 1011.2 - 0.0 - - - - - - -
25/06:30pm 22.6 WNW 7 8 1010.8 - 0.0 - - - - - - -
25/06:00pm 22.8 WNW 7 8 1010.4 - 0.0 - - - - - - -
25/05:30pm 23.1 WNW 8 9 1010.0 - 0.0 - - - - - - -
25/05:00pm 23.7 WNW 8 10 1009.8 - 0.0 - - - - - - -
25/04:30pm 24.8 WNW 6 9 1009.7 - 0.0 - - - - - - -
25/04:00pm 25.1 W 6 7 1009.7 - 0.0 - - - - - - -
25/03:30pm 25.9 W 5 7 1009.8 - 0.0 - - - - - - -
25/03:00pm 25.9 WSW 4 6 1009.7 - 0.0 - - - - - - -
25/02:30pm 25.7 SW 4 7 1009.8 - 0.0 - - - - - - -
25/02:00pm 25.9 WSW 5 9 1010.0 - 0.0 - - - - - - -
25/01:30pm 25.8 SW 5 9 1010.2 - 0.0 - - - - - - -
25/01:00pm 25.5 SSW 5 9 1010.4 - 0.0 - - - - - - -
25/12:30pm 25.9 SW 6 10 1010.7 - 0.0 - - - - - - -

Other Formats:

Comma delimited format used in spreadsheet applications
http://www.bom.gov.au/fwo/IDQ60701/IDQ60701.94372.axf

JavaScript Object Notation format (JSON) in row-major order
http://www.bom.gov.au/fwo/IDQ60701/IDQ60701.94372.json